Wetterdaten: aktuell Dienstag, 05.05.2026 23:40
Datum Zeit Innen Temp. A. Schlaf Luftf.innen Feuchte A. Feuchte 2 Luftdruck Regen Wind
05.05.2026 23:40 24,5 °C 14,3 °C 22,0 °C 42 % 65 % 41 % 1006,6 hPa 0,0 mm 2,7 km/h
05.05.2026 22:40 24,5 °C 15,6 °C 22,1 °C 41 % 60 % 40 % 1006,5 hPa 0,0 mm 4,4 km/h
05.05.2026 21:40 24,5 °C 16,4 °C 22,0 °C 42 % 58 % 40 % 1006,3 hPa 0,0 mm 18,6 km/h
05.05.2026 20:40 24,5 °C 17,6 °C 22,0 °C 41 % 53 % 39 % 1006,2 hPa 0,0 mm 8,8 km/h
05.05.2026 19:40 24,3 °C 18,9 °C 22,0 °C 41 % 48 % 39 % 1006,0 hPa 0,0 mm 10,5 km/h
05.05.2026 18:40 24,1 °C 19,4 °C 22,0 °C 39 % 46 % 39 % 1005,9 hPa 0,0 mm 10,8 km/h
05.05.2026 17:40 24,3 °C 20,4 °C 22,0 °C 38 % 43 % 39 % 1005,8 hPa 0,0 mm 7,7 km/h
05.05.2026 16:40 24,4 °C 22,7 °C 22,0 °C 38 % 39 % 39 % 1005,5 hPa 0,0 mm 6,9 km/h
05.05.2026 15:40 24,3 °C 23,3 °C 22,0 °C 38 % 38 % 39 % 1005,4 hPa 0,2 mm 7,7 km/h
05.05.2026 14:40 24,6 °C 25,5 °C 22,0 °C 35 % 32 % 39 % 1005,1 hPa 0,0 mm 6,9 km/h
05.05.2026 13:40 24,4 °C 24,7 °C 22,0 °C 37 % 34 % 39 % 1005,2 hPa 0,0 mm 7,5 km/h
05.05.2026 12:40 24,1 °C 25,0 °C 21,9 °C 35 % 29 % 38 % 1006,2 hPa 0,0 mm 10,5 km/h
05.05.2026 11:40 24,0 °C 24,2 °C 21,9 °C 37 % 31 % 39 % 1007,4 hPa 0,0 mm 3,6 km/h
05.05.2026 10:40 23,8 °C 22,5 °C 21,9 °C 38 % 37 % 39 % 1007,6 hPa 0,0 mm 3,3 km/h
05.05.2026 09:40 23,8 °C 19,4 °C 21,8 °C 39 % 46 % 40 % 1008,0 hPa 0,0 mm 1,9 km/h
05.05.2026 08:40 23,4 °C 14,4 °C 21,4 °C 40 % 61 % 40 % 1008,7 hPa 0,0 mm 1,1 km/h
05.05.2026 07:40 23,2 °C 10,3 °C 20,6 °C 39 % 73 % 40 % 1010,4 hPa 0,0 mm 0,0 km/h
05.05.2026 06:40 23,2 °C 8,9 °C 20,5 °C 39 % 77 % 40 % 1009,5 hPa 0,0 mm 0,0 km/h
05.05.2026 05:40 23,2 °C 8,5 °C 20,6 °C 39 % 78 % 40 % 1009,6 hPa 0,0 mm 0,0 km/h
05.05.2026 04:40 23,4 °C 8,1 °C 20,8 °C 39 % 77 % 40 % 1010,7 hPa 0,0 mm 0,0 km/h
05.05.2026 03:40 23,6 °C 8,8 °C 20,9 °C 39 % 76 % 40 % 1010,6 hPa 0,0 mm 0,0 km/h
05.05.2026 02:40 23,8 °C 9,1 °C 21,1 °C 38 % 74 % 39 % 1010,5 hPa 0,0 mm 0,0 km/h
05.05.2026 01:40 24,0 °C 10,5 °C 21,3 °C 39 % 70 % 40 % 1011,4 hPa 0,0 mm 0,0 km/h
05.05.2026 00:40 24,1 °C 11,4 °C 21,6 °C 39 % 67 % 39 % 1011,2 hPa 0,0 mm 0,0 km/h
05.05.2026 00:00 24,2 °C 12,1 °C 21,6 °C 38 % 65 % 39 % 1011,1 hPa 0,0 mm 0,0 km/h
_ Min-Zeit 06:50 06:10 06:00 12:05 12:00 12:15 14:10 - 00:00
Minimum _ 23,1 °C 7,8 °C 20,5 °C 34 % 25 % 38 % 1005,0 hPa - 0,0 km/h
_ Max-Zeit 14:20 13:20 22:40 20:50 06:05 23:15 02:25 15:15 17:00
Maximum _ 24,6 °C 26,1 °C 22,1 °C 42 % 79 % 41 % 1011,6 hPa 0,2 mm 61,6 km/h
N
Durchschnitt _ 24,0 °C 16,6 °C 21,6 °C 39 % 55 % 39 % 1007,8 hPa #0,2 mm 5,3 km/h